createdAt,value
2022-11-20T00:00:51.217Z,74.50
2022-11-20T00:03:56.482Z,74.59
2022-11-20T00:06:58.016Z,74.33
2022-11-20T00:09:59.534Z,74.75
2022-11-20T00:13:00.916Z,74.33
2022-11-20T00:16:05.285Z,73.51
2022-11-20T00:19:06.857Z,74.17
2022-11-20T00:22:08.265Z,74.41
2022-11-20T00:25:09.808Z,73.93
2022-11-20T00:28:11.238Z,73.21
2022-11-20T00:31:15.191Z,73.95
2022-11-20T00:34:16.697Z,74.30
2022-11-20T00:37:18.225Z,73.72
2022-11-20T00:40:19.846Z,74.16
2022-11-20T00:43:23.445Z,74.16
2022-11-20T00:46:27.439Z,74.31
2022-11-20T00:49:28.856Z,73.96
2022-11-20T00:52:30.236Z,74.49
2022-11-20T00:55:31.647Z,74.02
2022-11-20T00:58:35.685Z,73.86
2022-11-20T01:01:37.645Z,74.28
2022-11-20T01:04:40.751Z,73.80
2022-11-20T01:07:42.712Z,74.41
2022-11-20T01:10:44.172Z,73.97
2022-11-20T01:13:47.210Z,74.03
2022-11-20T01:16:51.632Z,73.77
2022-11-20T01:19:53.124Z,73.89
2022-11-20T01:22:54.628Z,73.91
2022-11-20T01:25:56.855Z,73.61
2022-11-20T01:28:59.750Z,74.43
2022-11-20T01:32:02.523Z,73.55
2022-11-20T01:35:05.539Z,73.91
2022-11-20T01:38:06.982Z,73.76
2022-11-20T01:41:09.681Z,74.09
2022-11-20T01:44:15.425Z,73.76
2022-11-20T01:47:35.849Z,73.75
2022-11-20T01:50:37.327Z,73.73
2022-11-20T01:53:39.377Z,73.42
2022-11-20T01:56:44.886Z,73.31
2022-11-20T02:00:13.732Z,73.14
2022-11-20T02:03:19.587Z,73.14
2022-11-20T02:06:28.511Z,72.80
2022-11-20T02:09:29.967Z,72.79
2022-11-20T02:12:50.470Z,72.15
2022-11-20T02:15:52.299Z,72.14
2022-11-20T02:18:55.701Z,71.84
2022-11-20T02:22:08.602Z,71.82
2022-11-20T02:25:10.835Z,71.63
2022-11-20T02:28:12.271Z,71.23
2022-11-20T02:31:13.729Z,71.03
2022-11-20T02:34:15.231Z,71.21
2022-11-20T02:37:18.216Z,70.73
2022-11-20T02:40:19.827Z,70.74
2022-11-20T02:43:21.279Z,70.53
2022-11-20T02:46:23.261Z,70.25
2022-11-20T02:49:25.657Z,70.36
2022-11-20T02:52:27.308Z,70.26
2022-11-20T02:55:28.691Z,70.23
2022-11-20T02:58:30.150Z,70.34
2022-11-20T03:01:31.581Z,70.55
2022-11-20T03:04:33.096Z,70.37
2022-11-20T03:07:34.591Z,70.46
2022-11-20T03:10:36.028Z,70.73
2022-11-20T03:13:37.565Z,70.32
2022-11-20T03:16:39.013Z,70.40
2022-11-20T03:19:40.684Z,70.53
2022-11-20T03:22:42.097Z,70.19
2022-11-20T03:25:43.522Z,70.33
2022-11-20T03:28:50.753Z,70.34
2022-11-20T03:31:52.226Z,70.03
2022-11-20T03:34:53.664Z,69.83
2022-11-20T03:37:56.293Z,69.92
2022-11-20T03:41:09.333Z,69.62
2022-11-20T03:44:12.356Z,69.44
2022-11-20T03:47:13.821Z,69.42
2022-11-20T03:50:15.468Z,69.27
2022-11-20T03:53:17.573Z,69.35
2022-11-20T03:56:23.364Z,69.34
2022-11-20T03:59:24.817Z,68.78
2022-11-20T04:02:26.258Z,69.28
2022-11-20T04:05:28.093Z,68.89
2022-11-20T04:08:31.062Z,69.43
2022-11-20T04:11:35.361Z,69.22
2022-11-20T04:14:37.240Z,69.17
2022-11-20T04:17:38.661Z,69.23
2022-11-20T04:20:41.511Z,69.13
2022-11-20T04:23:43.670Z,69.51
2022-11-20T04:26:45.115Z,69.60
2022-11-20T04:29:46.658Z,69.33
2022-11-20T04:32:48.207Z,69.63
2022-11-20T04:35:49.677Z,69.45
2022-11-20T04:38:57.409Z,69.63
2022-11-20T04:42:18.286Z,69.61
2022-11-20T04:45:19.904Z,69.69
2022-11-20T04:48:21.810Z,69.77
2022-11-20T04:51:23.733Z,69.59
2022-11-20T04:54:25.360Z,69.40
2022-11-20T04:57:26.833Z,69.78
2022-11-20T05:00:28.240Z,69.53
2022-11-20T05:03:30.701Z,69.53
2022-11-20T05:06:32.318Z,69.77
2022-11-20T05:09:33.937Z,69.80
2022-11-20T05:12:35.388Z,69.88
2022-11-20T05:15:36.858Z,69.71
2022-11-20T05:18:39.469Z,69.68
2022-11-20T05:21:41.075Z,69.37
2022-11-20T05:24:43.798Z,69.55
2022-11-20T05:27:48.762Z,69.20
2022-11-20T05:30:51.159Z,69.36
2022-11-20T05:33:52.766Z,69.24
2022-11-20T05:36:54.298Z,69.06
2022-11-20T05:39:55.722Z,69.13
2022-11-20T05:42:57.155Z,68.84
2022-11-20T05:45:59.437Z,68.97
2022-11-20T05:49:01.283Z,69.35
2022-11-20T05:52:03.078Z,69.09
2022-11-20T05:55:04.896Z,69.14
2022-11-20T05:58:06.408Z,69.17
2022-11-20T06:01:11.791Z,69.52
2022-11-20T06:04:13.216Z,69.32
2022-11-20T06:07:14.657Z,69.15
2022-11-20T06:10:16.226Z,69.01
2022-11-20T06:13:17.699Z,69.06
2022-11-20T06:16:44.383Z,69.45
2022-11-20T06:19:45.908Z,69.23
2022-11-20T06:22:48.130Z,69.30
2022-11-20T06:25:49.611Z,69.43
2022-11-20T06:29:18.460Z,69.40
2022-11-20T06:32:19.962Z,68.95
2022-11-20T06:35:21.518Z,68.97
2022-11-20T06:38:22.994Z,69.03
2022-11-20T06:41:25.680Z,68.96
2022-11-20T06:44:27.156Z,68.86
2022-11-20T06:47:28.686Z,68.53
2022-11-20T06:50:30.464Z,68.63
2022-11-20T06:53:32.234Z,68.56
2022-11-20T06:56:35.286Z,68.31
2022-11-20T06:59:36.707Z,68.49
2022-11-20T07:02:38.116Z,68.74
2022-11-20T07:05:40.449Z,68.56
2022-11-20T07:08:41.887Z,68.75
2022-11-20T07:11:43.491Z,68.53
2022-11-20T07:14:50.906Z,68.39
2022-11-20T07:17:52.764Z,68.27
2022-11-20T07:20:54.198Z,68.12
2022-11-20T07:23:55.650Z,68.32
2022-11-20T07:26:57.188Z,68.47
2022-11-20T07:29:58.608Z,68.24
2022-11-20T07:33:00.366Z,68.34
2022-11-20T07:36:02.482Z,68.26
2022-11-20T07:39:04.032Z,68.28
2022-11-20T07:42:06.826Z,68.57
2022-11-20T07:45:08.648Z,68.53
2022-11-20T07:48:10.199Z,68.38
2022-11-20T07:51:11.604Z,68.42
2022-11-20T07:54:13.916Z,68.14
2022-11-20T07:57:15.855Z,68.21
2022-11-20T08:00:17.420Z,67.91
2022-11-20T08:03:24.356Z,68.12
2022-11-20T08:06:26.518Z,67.94
2022-11-20T08:09:29.248Z,67.89
2022-11-20T08:12:49.362Z,67.94
2022-11-20T08:15:53.605Z,67.83
2022-11-20T08:18:55.473Z,67.75
2022-11-20T08:21:56.894Z,67.51
2022-11-20T08:24:58.383Z,67.70
2022-11-20T08:28:07.902Z,67.59
2022-11-20T08:31:13.266Z,67.66
2022-11-20T08:34:18.772Z,67.52
2022-11-20T08:37:20.777Z,67.15
2022-11-20T08:40:22.231Z,67.42
2022-11-20T08:43:23.672Z,67.02
2022-11-20T08:46:27.229Z,67.62
2022-11-20T08:49:28.782Z,67.52
2022-11-20T08:52:30.189Z,67.24
2022-11-20T08:55:31.964Z,67.12
2022-11-20T08:58:49.112Z,66.86
2022-11-20T09:01:55.027Z,66.66
2022-11-20T09:04:57.061Z,66.27
2022-11-20T09:07:59.332Z,66.52
2022-11-20T09:11:00.870Z,66.78
2022-11-20T09:14:03.155Z,66.77
2022-11-20T09:17:04.653Z,66.95
2022-11-20T09:20:06.423Z,66.45
2022-11-20T09:23:08.153Z,66.49
2022-11-20T09:26:12.057Z,66.37
2022-11-20T09:29:38.679Z,66.33
2022-11-20T09:32:40.500Z,66.28
2022-11-20T09:35:46.030Z,65.98
2022-11-20T09:38:48.957Z,66.19
2022-11-20T09:42:04.151Z,65.96
2022-11-20T09:45:17.124Z,66.25
2022-11-20T09:48:23.114Z,66.40
2022-11-20T09:51:57.425Z,66.36
2022-11-20T09:55:02.690Z,66.40
2022-11-20T09:58:08.061Z,66.15
2022-11-20T10:01:14.584Z,66.02
2022-11-20T10:04:21.404Z,65.55
2022-11-20T10:07:43.184Z,65.66
2022-11-20T10:10:52.459Z,65.64
2022-11-20T10:14:23.924Z,65.83
2022-11-20T10:17:48.780Z,65.46
2022-11-20T10:21:24.222Z,65.56
2022-11-20T10:24:35.926Z,65.16
2022-11-20T10:27:59.299Z,65.55
2022-11-20T10:31:12.063Z,65.37
2022-11-20T10:34:27.375Z,65.38
2022-11-20T10:37:32.942Z,65.30
2022-11-20T10:40:34.795Z,65.57
2022-11-20T10:43:38.615Z,65.45
2022-11-20T10:46:45.423Z,64.90
2022-11-20T10:49:55.777Z,64.93
2022-11-20T10:53:09.495Z,65.27
2022-11-20T10:56:31.189Z,64.91
2022-11-20T10:59:42.147Z,64.99
2022-11-20T11:02:46.611Z,65.12
2022-11-20T11:06:21.504Z,65.27
2022-11-20T11:09:37.787Z,64.42
2022-11-20T11:12:46.097Z,64.73
2022-11-20T11:15:47.529Z,64.00
2022-11-20T11:18:49.059Z,64.39
2022-11-20T11:21:57.754Z,64.34
2022-11-20T11:24:59.796Z,64.30
2022-11-20T11:28:20.096Z,64.75
2022-11-20T11:31:26.964Z,63.78
2022-11-20T11:34:28.462Z,64.59
2022-11-20T11:37:36.320Z,64.31
2022-11-20T11:40:40.233Z,63.00
2022-11-20T11:44:11.533Z,62.83
2022-11-20T11:47:26.026Z,62.43
2022-11-20T11:50:29.547Z,63.11
2022-11-20T11:53:31.143Z,62.23
2022-11-20T11:56:33.591Z,62.34
2022-11-20T11:59:50.816Z,61.59
2022-11-20T12:03:16.321Z,61.61
2022-11-20T12:06:17.961Z,61.66
2022-11-20T12:09:25.076Z,61.55
2022-11-20T12:12:37.210Z,61.72
2022-11-20T12:15:44.868Z,61.55
2022-11-20T12:18:50.513Z,61.72
2022-11-20T12:22:13.990Z,61.88
2022-11-20T12:25:36.620Z,62.28
2022-11-20T12:28:45.140Z,62.29
2022-11-20T12:32:10.717Z,62.41
2022-11-20T12:35:21.328Z,62.41
2022-11-20T12:38:41.142Z,62.38
2022-11-20T12:42:21.484Z,62.45
2022-11-20T12:45:35.563Z,62.44
2022-11-20T12:49:08.296Z,62.45
2022-11-20T12:52:39.746Z,62.64
2022-11-20T12:55:53.578Z,62.79
2022-11-20T12:59:16.699Z,62.21
2022-11-20T13:02:55.337Z,62.76
2022-11-20T13:06:14.278Z,63.03
2022-11-20T13:09:19.682Z,62.99
2022-11-20T13:12:39.638Z,62.52
2022-11-20T13:16:05.418Z,62.85
2022-11-20T13:19:12.823Z,62.43
2022-11-20T13:22:27.136Z,62.37
2022-11-20T13:25:30.988Z,62.14
2022-11-20T13:28:32.767Z,62.66
2022-11-20T13:31:45.931Z,63.07
2022-11-20T13:34:55.246Z,63.01
2022-11-20T13:38:15.332Z,63.36
2022-11-20T13:41:35.951Z,63.33
2022-11-20T13:44:46.985Z,62.55
2022-11-20T13:47:50.256Z,62.80
2022-11-20T13:51:06.436Z,62.33
2022-11-20T13:54:44.288Z,62.07
2022-11-20T13:58:04.671Z,62.64
2022-11-20T14:01:20.646Z,62.25
2022-11-20T14:04:30.672Z,61.52
2022-11-20T14:07:52.543Z,62.24
2022-11-20T14:11:13.072Z,62.46
2022-11-20T14:14:36.268Z,62.42
2022-11-20T14:17:38.634Z,62.38
2022-11-20T14:20:41.597Z,62.85
2022-11-20T14:23:48.409Z,62.83
2022-11-20T14:26:51.331Z,62.86
2022-11-20T14:29:53.255Z,62.71
2022-11-20T14:32:58.320Z,62.75
2022-11-20T14:35:59.936Z,62.91
2022-11-20T14:39:01.405Z,63.15
2022-11-20T14:42:17.487Z,63.23
2022-11-20T14:45:20.090Z,63.00
2022-11-20T14:48:28.251Z,62.57
2022-11-20T14:51:38.846Z,62.63
2022-11-20T14:55:08.448Z,62.92
2022-11-20T14:58:25.235Z,62.81
2022-11-20T15:01:29.000Z,63.14
2022-11-20T15:04:30.619Z,63.32
2022-11-20T15:07:35.935Z,63.51
2022-11-20T15:10:38.642Z,63.07
2022-11-20T15:13:40.885Z,62.86
2022-11-20T15:16:42.330Z,63.04
2022-11-20T15:19:43.891Z,63.21
2022-11-20T15:22:45.308Z,63.02
2022-11-20T15:25:48.907Z,63.46
2022-11-20T15:28:50.603Z,63.27
2022-11-20T15:31:53.220Z,63.41
2022-11-20T15:34:54.679Z,63.56
2022-11-20T15:37:56.087Z,63.41
2022-11-20T15:40:57.927Z,63.26
2022-11-20T15:43:59.356Z,63.30
2022-11-20T15:47:00.758Z,63.51
2022-11-20T15:50:02.872Z,63.29
2022-11-20T15:53:04.896Z,63.13
2022-11-20T15:56:10.598Z,63.87
2022-11-20T15:59:12.604Z,63.89
2022-11-20T16:02:19.350Z,63.62
2022-11-20T16:05:23.975Z,63.73
2022-11-20T16:08:25.788Z,63.70
2022-11-20T16:11:27.390Z,63.70
2022-11-20T16:14:47.750Z,63.87
2022-11-20T16:17:49.239Z,64.02
2022-11-20T16:20:55.004Z,64.05
2022-11-20T16:23:58.453Z,63.76
2022-11-20T16:27:00.161Z,64.08
2022-11-20T16:30:01.602Z,64.09
2022-11-20T16:33:04.301Z,64.22
2022-11-20T16:36:15.584Z,64.15
2022-11-20T16:39:23.066Z,64.11
2022-11-20T16:42:25.197Z,63.99
2022-11-20T16:45:31.340Z,63.92
2022-11-20T16:48:35.237Z,64.51
2022-11-20T16:51:40.167Z,64.63
2022-11-20T16:54:41.812Z,64.76
2022-11-20T16:57:43.262Z,64.56
2022-11-20T17:00:51.221Z,64.89
2022-11-20T17:03:56.636Z,64.64
2022-11-20T17:06:58.250Z,64.94
2022-11-20T17:10:00.641Z,65.18
2022-11-20T17:13:02.639Z,65.55
2022-11-20T17:16:07.032Z,65.22
2022-11-20T17:19:08.703Z,64.92
2022-11-20T17:22:10.133Z,64.97
2022-11-20T17:25:11.770Z,65.27
2022-11-20T17:28:13.259Z,64.98
2022-11-20T17:31:16.876Z,64.98
2022-11-20T17:34:18.362Z,65.10
2022-11-20T17:37:19.871Z,65.09
2022-11-20T17:40:25.999Z,65.00
2022-11-20T17:43:34.297Z,65.19
2022-11-20T17:46:37.698Z,65.21
2022-11-20T17:49:39.226Z,65.59
2022-11-20T17:52:40.743Z,65.23
2022-11-20T17:56:00.972Z,65.30
2022-11-20T17:59:08.046Z,65.29
2022-11-20T18:02:10.654Z,65.40
2022-11-20T18:05:12.269Z,65.47
2022-11-20T18:08:13.977Z,65.50
2022-11-20T18:11:27.033Z,65.56
2022-11-20T18:14:35.826Z,65.81
2022-11-20T18:17:37.403Z,65.63
2022-11-20T18:20:40.176Z,65.95
2022-11-20T18:23:41.902Z,66.14
2022-11-20T18:26:44.663Z,66.55
2022-11-20T18:29:51.333Z,66.51
2022-11-20T18:32:52.970Z,66.92
2022-11-20T18:35:57.216Z,66.97
2022-11-20T18:39:01.132Z,67.59
2022-11-20T18:42:21.542Z,67.52
2022-11-20T18:45:22.992Z,67.16
2022-11-20T18:48:27.562Z,67.36
2022-11-20T18:51:29.208Z,67.85
2022-11-20T18:54:37.090Z,67.84
2022-11-20T18:57:38.519Z,67.84
2022-11-20T19:00:39.971Z,67.78
2022-11-20T19:03:42.832Z,67.96
2022-11-20T19:06:48.840Z,67.76
2022-11-20T19:09:52.471Z,67.61
2022-11-20T19:12:58.687Z,68.19
2022-11-20T19:16:09.696Z,68.94
2022-11-20T19:19:11.561Z,69.47
2022-11-20T19:22:13.122Z,69.26
2022-11-20T19:25:14.609Z,69.13
2022-11-20T19:28:16.258Z,68.82
2022-11-20T19:31:24.596Z,68.74
2022-11-20T19:34:26.690Z,69.02
2022-11-20T19:37:28.203Z,68.65
2022-11-20T19:40:30.372Z,69.01
2022-11-20T19:43:33.827Z,69.05
2022-11-20T19:46:37.572Z,69.49
2022-11-20T19:49:41.221Z,69.37
2022-11-20T19:52:42.776Z,69.25
2022-11-20T19:55:57.796Z,69.51
2022-11-20T19:58:59.732Z,69.54
2022-11-20T20:02:04.339Z,69.17
2022-11-20T20:05:10.015Z,68.95
2022-11-20T20:08:16.472Z,68.86
2022-11-20T20:11:22.547Z,68.89
2022-11-20T20:14:24.280Z,68.91
2022-11-20T20:17:25.751Z,69.06
2022-11-20T20:20:28.522Z,68.38
2022-11-20T20:23:30.015Z,68.18
2022-11-20T20:26:37.442Z,68.04
2022-11-20T20:29:39.007Z,68.15
2022-11-20T20:32:40.520Z,68.90
2022-11-20T20:35:42.504Z,69.21
2022-11-20T20:38:45.845Z,69.46
2022-11-20T20:41:47.406Z,69.59
2022-11-20T20:45:07.273Z,70.06
2022-11-20T20:48:08.789Z,70.55
2022-11-20T20:51:18.047Z,69.90
2022-11-20T20:54:19.737Z,69.92
2022-11-20T20:57:22.477Z,69.80
2022-11-20T21:00:31.884Z,69.91
2022-11-20T21:03:39.781Z,70.14
2022-11-20T21:06:42.682Z,69.90
2022-11-20T21:09:51.221Z,70.09
2022-11-20T21:12:57.630Z,69.93
2022-11-20T21:16:06.380Z,69.53
2022-11-20T21:19:11.345Z,69.51
2022-11-20T21:22:16.762Z,69.47
2022-11-20T21:25:19.026Z,69.68
2022-11-20T21:28:20.678Z,69.55
2022-11-20T21:31:27.968Z,69.34
2022-11-20T21:34:29.587Z,69.14
2022-11-20T21:37:31.120Z,69.61
2022-11-20T21:40:32.610Z,69.51
2022-11-20T21:43:35.806Z,69.71
2022-11-20T21:46:40.199Z,69.40
2022-11-20T21:49:41.609Z,69.81
2022-11-20T21:52:43.061Z,69.54
2022-11-20T21:55:53.073Z,69.62
2022-11-20T21:58:55.293Z,69.83
2022-11-20T22:01:56.765Z,69.81
2022-11-20T22:04:59.139Z,69.97
2022-11-20T22:08:01.282Z,70.04
2022-11-20T22:11:05.777Z,70.32
2022-11-20T22:14:23.047Z,71.08
2022-11-20T22:17:45.071Z,70.76
2022-11-20T22:20:46.478Z,71.00
2022-11-20T22:23:48.812Z,70.59
2022-11-20T22:26:50.298Z,70.57
2022-11-20T22:29:51.732Z,70.78
2022-11-20T22:32:55.881Z,70.58
2022-11-20T22:36:25.422Z,70.21
2022-11-20T22:39:26.862Z,70.29
2022-11-20T22:42:28.247Z,70.44
2022-11-20T22:45:30.154Z,70.39
2022-11-20T22:48:33.250Z,70.40
2022-11-20T22:51:38.142Z,70.34
2022-11-20T22:54:39.599Z,70.22
2022-11-20T22:57:40.992Z,69.89
2022-11-20T23:00:42.394Z,70.33
2022-11-20T23:03:46.214Z,70.23
2022-11-20T23:06:47.763Z,70.83
2022-11-20T23:09:49.139Z,70.79
2022-11-20T23:12:50.682Z,70.60
2022-11-20T23:15:52.434Z,70.21
2022-11-20T23:18:56.158Z,69.96
2022-11-20T23:21:57.596Z,70.34
2022-11-20T23:25:00.858Z,70.93
2022-11-20T23:28:03.199Z,70.89
2022-11-20T23:31:05.333Z,70.94
2022-11-20T23:34:09.994Z,70.95
2022-11-20T23:37:11.454Z,70.82
2022-11-20T23:40:12.900Z,71.32
2022-11-20T23:43:15.582Z,70.86
2022-11-20T23:46:17.235Z,70.58
2022-11-20T23:49:18.699Z,70.56
2022-11-20T23:52:21.583Z,70.62
2022-11-20T23:55:23.039Z,70.85
2022-11-20T23:58:29.155Z,70.96
